createdAt,value
2022-09-06T00:00:26.556Z,9.63
2022-09-06T00:02:57.641Z,8.90
2022-09-06T00:05:24.889Z,9.35
2022-09-06T00:07:52.525Z,9.88
2022-09-06T00:10:20.158Z,6.45
2022-09-06T00:12:47.826Z,5.93
2022-09-06T00:15:15.572Z,11.10
2022-09-06T00:17:44.878Z,11.13
2022-09-06T00:20:12.206Z,11.18
2022-09-06T00:22:39.648Z,12.13
2022-09-06T00:25:07.446Z,12.80
2022-09-06T00:27:35.220Z,8.35
2022-09-06T00:30:04.751Z,7.60
2022-09-06T00:32:33.148Z,12.68
2022-09-06T00:35:00.328Z,10.10
2022-09-06T00:37:27.718Z,7.40
2022-09-06T00:39:54.924Z,7.00
2022-09-06T00:42:22.139Z,7.65
2022-09-06T00:44:50.660Z,8.02
2022-09-06T00:47:18.264Z,7.72
2022-09-06T00:49:49.214Z,9.90
2022-09-06T00:52:19.057Z,8.52
2022-09-06T00:54:47.926Z,9.70
2022-09-06T00:57:16.804Z,9.18
2022-09-06T00:59:45.836Z,6.60
2022-09-06T01:02:13.385Z,8.70
2022-09-06T01:04:43.164Z,9.93
2022-09-06T01:07:25.800Z,10.18
2022-09-06T01:10:20.174Z,7.10
2022-09-06T01:13:13.762Z,9.88
2022-09-06T01:16:06.850Z,9.05
2022-09-06T01:18:50.314Z,7.88
2022-09-06T01:21:35.101Z,7.45
2022-09-06T01:24:21.220Z,10.15
2022-09-06T01:27:06.695Z,7.43
2022-09-06T01:29:48.673Z,6.80
2022-09-06T01:32:33.058Z,6.75
2022-09-06T01:35:18.983Z,7.30
2022-09-06T01:37:46.380Z,7.03
2022-09-06T01:40:13.743Z,10.10
2022-09-06T01:42:43.436Z,7.55
2022-09-06T01:45:20.765Z,7.50
2022-09-06T01:47:53.895Z,8.10
2022-09-06T01:50:44.518Z,7.85
2022-09-06T01:53:36.540Z,6.80
2022-09-06T01:56:29.099Z,8.90
2022-09-06T01:59:48.269Z,7.60
2022-09-06T02:02:49.392Z,8.27
2022-09-06T02:05:42.981Z,8.70
2022-09-06T02:08:16.843Z,6.75
2022-09-06T02:10:55.557Z,7.65
2022-09-06T02:13:25.941Z,6.00
2022-09-06T02:15:58.674Z,6.15
2022-09-06T02:18:34.244Z,6.15
2022-09-06T02:21:03.669Z,6.63
2022-09-06T02:23:36.753Z,6.07
2022-09-06T02:26:18.551Z,6.10
2022-09-06T02:28:46.092Z,10.85
2022-09-06T02:31:25.792Z,7.38
2022-09-06T02:33:53.817Z,8.48
2022-09-06T02:36:21.707Z,7.88
2022-09-06T02:38:49.149Z,6.55
2022-09-06T02:41:21.156Z,9.32
2022-09-06T02:43:49.288Z,8.93
2022-09-06T02:46:16.702Z,8.80
2022-09-06T02:48:44.026Z,7.07
2022-09-06T02:51:11.411Z,7.93
2022-09-06T02:53:38.589Z,18.15
2022-09-06T02:56:06.237Z,7.85
2022-09-06T02:58:34.698Z,6.10
2022-09-06T03:01:02.142Z,6.43
2022-09-06T03:03:29.446Z,8.13
2022-09-06T03:05:57.005Z,6.43
2022-09-06T03:08:26.399Z,6.88
2022-09-06T03:10:56.216Z,8.23
2022-09-06T03:13:24.580Z,7.45
2022-09-06T03:15:53.117Z,9.45
2022-09-06T03:18:20.918Z,6.53
2022-09-06T03:20:52.490Z,7.28
2022-09-06T03:23:20.901Z,7.85
2022-09-06T03:25:48.238Z,7.72
2022-09-06T03:28:16.435Z,10.77
2022-09-06T03:30:47.669Z,8.18
2022-09-06T03:33:15.665Z,12.13
2022-09-06T03:35:54.890Z,8.75
2022-09-06T03:38:23.511Z,6.20
2022-09-06T03:40:52.957Z,7.35
2022-09-06T03:43:21.381Z,7.68
2022-09-06T03:45:50.846Z,8.43
2022-09-06T03:48:19.603Z,12.55
2022-09-06T03:50:48.342Z,7.70
2022-09-06T03:53:17.037Z,9.27
2022-09-06T03:55:46.248Z,7.10
2022-09-06T03:58:13.825Z,9.23
2022-09-06T04:00:41.331Z,13.25
2022-09-06T04:03:09.062Z,10.00
2022-09-06T04:05:36.812Z,10.43
2022-09-06T04:08:05.940Z,6.00
2022-09-06T04:10:33.985Z,8.73
2022-09-06T04:13:01.170Z,9.80
2022-09-06T04:15:28.399Z,12.48
2022-09-06T04:17:55.813Z,8.07
2022-09-06T04:20:23.071Z,9.95
2022-09-06T04:22:50.276Z,8.38
2022-09-06T04:25:17.724Z,11.32
2022-09-06T04:27:44.875Z,12.35
2022-09-06T04:30:12.261Z,11.52
2022-09-06T04:32:40.721Z,7.53
2022-09-06T04:35:08.551Z,9.55
2022-09-06T04:37:35.760Z,12.80
2022-09-06T04:40:04.055Z,11.95
2022-09-06T04:42:31.667Z,13.98
2022-09-06T04:44:58.904Z,14.43
2022-09-06T04:47:26.758Z,11.15
2022-09-06T04:49:54.067Z,14.48
2022-09-06T04:52:21.272Z,10.25
2022-09-06T04:54:48.649Z,15.70
2022-09-06T04:57:15.831Z,11.45
2022-09-06T04:59:43.119Z,15.98
2022-09-06T05:02:10.906Z,15.82
2022-09-06T05:04:38.170Z,15.25
2022-09-06T05:07:09.079Z,19.17
2022-09-06T05:09:36.967Z,12.63
2022-09-06T05:12:06.175Z,14.25
2022-09-06T05:14:33.390Z,15.95
2022-09-06T05:17:00.811Z,15.63
2022-09-06T05:19:28.049Z,15.35
2022-09-06T05:21:55.467Z,10.23
2022-09-06T05:24:22.825Z,17.75
2022-09-06T05:26:50.029Z,13.95
2022-09-06T05:29:17.254Z,14.02
2022-09-06T05:31:44.944Z,16.27
2022-09-06T05:34:13.567Z,16.77
2022-09-06T05:36:42.056Z,15.98
2022-09-06T05:39:09.772Z,13.68
2022-09-06T05:41:37.152Z,11.45
2022-09-06T05:44:04.534Z,17.35
2022-09-06T05:46:31.946Z,15.02
2022-09-06T05:49:08.059Z,19.92
2022-09-06T05:51:35.486Z,16.33
2022-09-06T05:54:02.853Z,13.98
2022-09-06T05:56:30.044Z,14.02
2022-09-06T05:58:57.459Z,15.52
2022-09-06T06:01:31.592Z,19.48
2022-09-06T06:04:04.946Z,15.10
2022-09-06T06:06:34.260Z,13.02
2022-09-06T06:09:02.035Z,19.92
2022-09-06T06:11:31.036Z,28.45
2022-09-06T06:13:59.311Z,20.10
2022-09-06T06:16:26.914Z,22.17
2022-09-06T06:18:54.500Z,21.35
2022-09-06T06:21:24.226Z,22.92
2022-09-06T06:23:54.434Z,27.50
2022-09-06T06:26:22.889Z,21.73
2022-09-06T06:28:50.297Z,19.67
2022-09-06T06:31:17.742Z,14.15
2022-09-06T06:33:45.236Z,12.23
2022-09-06T06:36:13.252Z,10.88
2022-09-06T06:38:42.789Z,9.45
2022-09-06T06:41:14.907Z,7.32
2022-09-06T06:43:42.435Z,8.15
2022-09-06T06:46:18.133Z,7.78
2022-09-06T06:48:47.397Z,8.38
2022-09-06T06:51:18.252Z,6.75
2022-09-06T06:53:49.125Z,6.65
2022-09-06T06:56:28.532Z,6.88
2022-09-06T06:58:58.436Z,7.68
2022-09-06T07:01:27.654Z,9.52
2022-09-06T07:03:55.165Z,4.80
2022-09-06T07:09:11.431Z,10.40
2022-09-06T07:11:38.599Z,10.82
2022-09-06T07:14:05.888Z,6.70
2022-09-06T07:16:33.768Z,5.45
2022-09-06T07:19:01.329Z,6.18
2022-09-06T07:24:08.691Z,7.28
2022-09-06T07:26:39.027Z,9.10
2022-09-06T07:29:08.273Z,6.22
2022-09-06T07:34:27.804Z,6.18
2022-09-06T07:36:56.283Z,4.88
2022-09-06T07:39:23.777Z,5.82
2022-09-06T07:41:51.629Z,5.95
2022-09-06T07:44:18.800Z,9.23
2022-09-06T07:46:46.331Z,7.53
2022-09-06T07:49:13.854Z,6.45
2022-09-06T07:51:41.075Z,6.15
2022-09-06T07:56:56.199Z,8.77
2022-09-06T07:59:23.349Z,5.82
2022-09-06T08:01:51.386Z,6.32
2022-09-06T08:04:18.936Z,4.47
2022-09-06T08:09:36.838Z,5.95
2022-09-06T08:12:07.579Z,7.30
2022-09-06T08:14:35.512Z,6.43
2022-09-06T08:17:03.644Z,7.90
2022-09-06T08:19:31.302Z,9.88
2022-09-06T08:21:58.662Z,7.85
2022-09-06T08:24:26.059Z,12.70
2022-09-06T08:26:53.320Z,11.48
2022-09-06T08:29:20.716Z,15.18
2022-09-06T08:31:48.149Z,14.00
2022-09-06T08:34:16.094Z,10.98
2022-09-06T08:36:44.250Z,11.55
2022-09-06T08:39:14.934Z,12.18
2022-09-06T08:41:42.052Z,12.93
2022-09-06T08:47:10.325Z,9.32
2022-09-06T08:49:40.326Z,7.70
2022-09-06T08:52:22.521Z,6.60
2022-09-06T08:55:01.952Z,5.30
2022-09-06T08:57:48.914Z,6.30
2022-09-06T09:00:16.887Z,7.43
2022-09-06T09:02:52.428Z,9.25
2022-09-06T09:05:25.664Z,5.47
2022-09-06T09:08:16.229Z,5.57
2022-09-06T09:10:48.236Z,4.45
2022-09-06T09:13:35.440Z,5.05
2022-09-06T09:16:06.674Z,5.10
2022-09-06T09:18:40.210Z,6.10
2022-09-06T09:21:07.472Z,5.63
2022-09-06T09:23:35.119Z,4.60
2022-09-06T09:26:10.461Z,3.22
2022-09-06T09:28:37.858Z,3.13
2022-09-06T09:31:07.189Z,2.95
2022-09-06T09:33:39.013Z,2.50
2022-09-06T09:36:13.327Z,4.00
2022-09-06T09:38:42.595Z,6.35
2022-09-06T09:41:24.146Z,5.55
2022-09-06T09:44:10.045Z,4.28
2022-09-06T09:46:39.938Z,2.95
2022-09-06T09:49:25.098Z,4.75
2022-09-06T09:52:16.114Z,3.38
2022-09-06T09:54:46.322Z,6.43
2022-09-06T09:57:17.883Z,5.90
2022-09-06T09:59:58.326Z,5.05
2022-09-06T10:02:29.987Z,3.35
2022-09-06T10:05:04.922Z,2.80
2022-09-06T10:07:34.445Z,4.43
2022-09-06T10:10:05.657Z,5.90
2022-09-06T10:12:36.676Z,2.75
2022-09-06T10:15:07.226Z,3.30
2022-09-06T10:17:48.386Z,4.72
2022-09-06T10:20:16.548Z,3.58
2022-09-06T10:23:06.586Z,4.38
2022-09-06T10:26:12.223Z,5.15
2022-09-06T10:28:47.238Z,2.63
2022-09-06T10:31:45.667Z,2.78
2022-09-06T10:34:31.443Z,4.18
2022-09-06T10:37:36.624Z,1.90
2022-09-06T10:40:10.212Z,3.10
2022-09-06T10:42:59.222Z,2.80
2022-09-06T10:45:46.646Z,4.60
2022-09-06T10:48:52.145Z,2.97
2022-09-06T10:51:39.877Z,3.47
2022-09-06T10:54:11.335Z,3.47
2022-09-06T10:56:51.445Z,6.28
2022-09-06T11:02:41.371Z,3.65
2022-09-06T11:05:38.404Z,2.42
2022-09-06T11:11:06.251Z,4.57
2022-09-06T11:13:33.878Z,3.00
2022-09-06T11:16:23.007Z,3.83
2022-09-06T11:19:09.975Z,2.08
2022-09-06T11:21:40.285Z,3.03
2022-09-06T11:24:33.493Z,7.20
2022-09-06T11:27:31.066Z,3.50
2022-09-06T11:30:00.789Z,5.97
2022-09-06T11:32:36.292Z,5.35
2022-09-06T11:35:07.482Z,2.72
2022-09-06T11:37:39.634Z,3.33
2022-09-06T11:40:26.897Z,4.25
2022-09-06T11:42:55.623Z,2.28
2022-09-06T11:45:40.379Z,3.60
2022-09-06T11:48:34.285Z,3.63
2022-09-06T11:51:11.263Z,2.63
2022-09-06T11:54:05.188Z,2.75
2022-09-06T11:56:36.930Z,3.83
2022-09-06T11:59:21.598Z,2.30
2022-09-06T12:02:07.684Z,2.55
2022-09-06T12:05:04.701Z,3.93
2022-09-06T12:07:32.940Z,5.23
2022-09-06T12:10:31.344Z,2.05
2022-09-06T12:12:59.366Z,2.00
2022-09-06T12:15:52.472Z,2.75
2022-09-06T12:18:47.555Z,3.10
2022-09-06T12:21:39.101Z,3.45
2022-09-06T12:24:08.830Z,4.82
2022-09-06T12:26:55.613Z,3.08
2022-09-06T12:31:57.326Z,2.47
2022-09-06T12:34:30.705Z,3.03
2022-09-06T12:37:07.319Z,2.83
2022-09-06T12:39:35.162Z,3.72
2022-09-06T12:42:04.065Z,3.80
2022-09-06T12:44:37.874Z,2.28
2022-09-06T12:47:15.685Z,2.33
2022-09-06T12:49:42.965Z,1.98
2022-09-06T12:52:16.518Z,2.95
2022-09-06T12:54:49.665Z,2.78
2022-09-06T12:57:21.783Z,2.72
2022-09-06T12:59:54.626Z,2.70
2022-09-06T13:02:46.710Z,1.42
2022-09-06T13:05:14.752Z,3.38
2022-09-06T13:07:52.428Z,4.68
2022-09-06T13:10:22.847Z,2.17
2022-09-06T13:12:53.210Z,6.03
2022-09-06T13:15:25.328Z,4.13
2022-09-06T13:17:54.603Z,3.90
2022-09-06T13:20:24.045Z,2.60
2022-09-06T13:22:52.393Z,3.97
2022-09-06T13:25:20.839Z,2.90
2022-09-06T13:27:51.014Z,3.40
2022-09-06T13:30:42.786Z,1.80
2022-09-06T13:33:25.643Z,3.85
2022-09-06T13:36:08.359Z,4.07
2022-09-06T13:38:38.716Z,3.25
2022-09-06T13:41:27.562Z,2.67
2022-09-06T13:44:08.037Z,3.63
2022-09-06T13:46:38.549Z,3.70
2022-09-06T13:49:06.244Z,3.22
2022-09-06T13:51:34.437Z,1.80
2022-09-06T13:54:13.001Z,2.75
2022-09-06T13:56:42.653Z,2.55
2022-09-06T13:59:10.894Z,1.63
2022-09-06T14:01:40.391Z,2.13
2022-09-06T14:04:10.595Z,1.52
2022-09-06T14:06:37.831Z,2.00
2022-09-06T14:09:07.745Z,1.98
2022-09-06T14:11:36.762Z,2.15
2022-09-06T14:14:04.337Z,2.05
2022-09-06T14:16:32.239Z,2.35
2022-09-06T14:18:59.608Z,4.97
2022-09-06T14:21:26.867Z,2.67
2022-09-06T14:23:54.216Z,2.97
2022-09-06T14:26:23.197Z,5.15
2022-09-06T14:28:51.504Z,2.80
2022-09-06T14:31:26.106Z,4.82
2022-09-06T14:33:55.412Z,4.03
2022-09-06T14:36:26.410Z,2.15
2022-09-06T14:38:54.079Z,3.53
2022-09-06T14:41:21.877Z,3.35
2022-09-06T14:43:54.774Z,2.78
2022-09-06T14:46:23.689Z,2.35
2022-09-06T14:49:00.865Z,1.75
2022-09-06T14:51:29.037Z,4.80
2022-09-06T14:54:03.355Z,2.20
2022-09-06T14:56:30.926Z,3.00
2022-09-06T14:59:00.082Z,2.78
2022-09-06T15:01:38.043Z,3.85
2022-09-06T15:04:08.906Z,2.65
2022-09-06T15:06:39.217Z,3.13
2022-09-06T15:09:08.110Z,2.35
2022-09-06T15:11:43.540Z,5.45
2022-09-06T15:14:25.269Z,4.75
2022-09-06T15:16:56.495Z,2.28
2022-09-06T15:19:25.831Z,2.63
2022-09-06T15:21:54.265Z,7.55
2022-09-06T15:24:22.011Z,2.95
2022-09-06T15:26:50.042Z,3.55
2022-09-06T15:29:17.595Z,2.33
2022-09-06T15:31:50.257Z,2.05
2022-09-06T15:34:22.270Z,4.43
2022-09-06T15:36:50.607Z,2.75
2022-09-06T15:39:18.166Z,2.38
2022-09-06T15:41:46.330Z,2.83
2022-09-06T15:44:16.114Z,1.95
2022-09-06T15:46:50.060Z,2.30
2022-09-06T15:49:28.400Z,2.53
2022-09-06T15:51:57.581Z,2.85
2022-09-06T15:54:43.570Z,2.40
2022-09-06T15:57:11.831Z,3.42
2022-09-06T15:59:40.793Z,3.40
2022-09-06T16:02:09.018Z,3.58
2022-09-06T16:04:36.261Z,3.03
2022-09-06T16:07:04.216Z,4.57
2022-09-06T16:09:31.865Z,6.78
2022-09-06T16:11:59.140Z,3.00
2022-09-06T16:14:28.206Z,3.35
2022-09-06T16:16:56.447Z,2.05
2022-09-06T16:19:26.033Z,3.60
2022-09-06T16:21:53.986Z,4.80
2022-09-06T16:24:21.498Z,1.67
2022-09-06T16:26:48.863Z,2.47
2022-09-06T16:29:18.195Z,2.50
2022-09-06T16:31:45.903Z,3.28
2022-09-06T16:34:14.107Z,4.80
2022-09-06T16:36:41.664Z,8.13
2022-09-06T16:39:09.585Z,3.40
2022-09-06T16:41:42.908Z,7.15
2022-09-06T16:44:16.744Z,8.32
2022-09-06T16:46:49.366Z,5.75
2022-09-06T16:49:19.321Z,2.85
2022-09-06T16:51:49.014Z,3.95
2022-09-06T16:54:17.882Z,4.65
2022-09-06T16:56:45.802Z,4.38
2022-09-06T16:59:15.241Z,3.53
2022-09-06T17:01:43.688Z,5.05
2022-09-06T17:04:12.743Z,4.20
2022-09-06T17:06:44.724Z,3.78
2022-09-06T17:09:14.430Z,5.43
2022-09-06T17:11:41.897Z,5.25
2022-09-06T17:14:09.116Z,5.32
2022-09-06T17:16:55.070Z,6.93
2022-09-06T17:19:22.536Z,5.35
2022-09-06T17:21:50.778Z,3.20
2022-09-06T17:24:18.014Z,6.00
2022-09-06T17:26:45.299Z,8.52
2022-09-06T17:29:13.026Z,7.45
2022-09-06T17:31:40.490Z,9.38
2022-09-06T17:34:07.835Z,8.48
2022-09-06T17:36:36.513Z,19.83
2022-09-06T17:39:05.310Z,14.68
2022-09-06T17:41:40.851Z,13.02
2022-09-06T17:44:14.313Z,13.50
2022-09-06T17:46:56.949Z,9.95
2022-09-06T17:49:32.876Z,14.10
2022-09-06T17:52:00.152Z,15.63
2022-09-06T17:54:28.323Z,15.52
2022-09-06T17:56:55.755Z,11.45
2022-09-06T17:59:23.054Z,12.70
2022-09-06T18:01:50.323Z,12.95
2022-09-06T18:04:18.197Z,17.75
2022-09-06T18:06:46.867Z,15.77
2022-09-06T18:09:16.898Z,14.43
2022-09-06T18:11:46.841Z,16.42
2022-09-06T18:14:20.852Z,14.43
2022-09-06T18:16:50.899Z,14.75
2022-09-06T18:19:18.985Z,16.58
2022-09-06T18:21:46.822Z,16.55
2022-09-06T18:24:15.444Z,15.63
2022-09-06T18:26:43.585Z,16.20
2022-09-06T18:29:16.666Z,16.83
2022-09-06T18:31:44.540Z,13.98
2022-09-06T18:34:12.713Z,14.10
2022-09-06T18:36:40.292Z,13.85
2022-09-06T18:39:08.137Z,16.23
2022-09-06T18:41:54.259Z,20.90
2022-09-06T18:44:22.439Z,13.40
2022-09-06T18:46:50.025Z,14.43
2022-09-06T18:49:17.705Z,13.80
2022-09-06T18:51:45.704Z,15.68
2022-09-06T18:54:13.635Z,14.90
2022-09-06T18:56:41.535Z,11.57
2022-09-06T18:59:10.878Z,12.15
2022-09-06T19:01:39.155Z,11.27
2022-09-06T19:04:07.638Z,13.05
2022-09-06T19:06:36.367Z,13.45
2022-09-06T19:09:07.228Z,13.82
2022-09-06T19:11:35.047Z,12.88
2022-09-06T19:14:09.784Z,11.43
2022-09-06T19:16:37.465Z,9.68
2022-09-06T19:19:08.024Z,13.30
2022-09-06T19:21:40.988Z,9.93
2022-09-06T19:24:11.638Z,10.20
2022-09-06T19:26:41.787Z,11.73
2022-09-06T19:29:14.094Z,10.32
2022-09-06T19:31:42.363Z,12.13
2022-09-06T19:34:10.311Z,15.23
2022-09-06T19:36:37.970Z,14.20
2022-09-06T19:39:07.926Z,15.80
2022-09-06T19:41:41.840Z,12.48
2022-09-06T19:44:12.566Z,13.38
2022-09-06T19:46:44.914Z,13.48
2022-09-06T19:49:17.874Z,32.88
2022-09-06T19:51:46.787Z,12.43
2022-09-06T19:54:15.484Z,12.00
2022-09-06T19:56:44.489Z,12.48
2022-09-06T19:59:13.020Z,12.00
2022-09-06T20:01:42.265Z,13.52
2022-09-06T20:04:11.113Z,11.98
2022-09-06T20:06:39.314Z,9.68
2022-09-06T20:09:09.461Z,12.20
2022-09-06T20:11:38.545Z,8.60
2022-09-06T20:14:06.189Z,7.65
2022-09-06T20:16:38.090Z,8.05
2022-09-06T20:19:08.211Z,9.90
2022-09-06T20:21:35.595Z,10.70
2022-09-06T20:24:03.167Z,15.90
2022-09-06T20:26:30.612Z,11.75
2022-09-06T20:29:00.190Z,11.07
2022-09-06T20:31:29.419Z,13.98
2022-09-06T20:33:59.216Z,10.73
2022-09-06T20:36:27.139Z,11.25
2022-09-06T20:38:54.499Z,12.65
2022-09-06T20:41:23.960Z,11.77
2022-09-06T20:43:56.633Z,10.88
2022-09-06T20:46:26.644Z,12.48
2022-09-06T20:48:57.470Z,10.73
2022-09-06T20:51:25.635Z,11.73
2022-09-06T20:53:58.061Z,10.77
2022-09-06T20:56:28.145Z,12.85
2022-09-06T20:59:00.938Z,14.35
2022-09-06T21:01:34.804Z,14.80
2022-09-06T21:04:05.437Z,12.43
2022-09-06T21:06:35.737Z,10.45
2022-09-06T21:09:05.264Z,11.20
2022-09-06T21:11:33.275Z,12.38
2022-09-06T21:14:01.096Z,14.45
2022-09-06T21:16:29.390Z,11.52
2022-09-06T21:19:01.422Z,12.85
2022-09-06T21:21:30.538Z,10.23
2022-09-06T21:23:57.970Z,10.32
2022-09-06T21:26:25.222Z,16.88
2022-09-06T21:28:53.473Z,9.18
2022-09-06T21:31:23.603Z,7.30
2022-09-06T21:33:53.207Z,10.23
2022-09-06T21:36:23.157Z,12.20
2022-09-06T21:38:53.865Z,9.98
2022-09-06T21:41:22.512Z,11.70
2022-09-06T21:44:00.765Z,11.30
2022-09-06T21:46:34.103Z,9.45
2022-09-06T21:49:04.461Z,13.10
2022-09-06T21:51:32.776Z,11.27
2022-09-06T21:54:03.570Z,10.57
2022-09-06T21:56:32.398Z,10.35
2022-09-06T21:59:00.251Z,10.55
2022-09-06T22:01:31.714Z,11.55
2022-09-06T22:04:00.220Z,10.60
2022-09-06T22:06:29.950Z,11.57
2022-09-06T22:09:02.834Z,10.40
2022-09-06T22:11:32.731Z,12.40
2022-09-06T22:14:02.643Z,9.07
2022-09-06T22:16:32.582Z,8.38
2022-09-06T22:19:00.204Z,14.25
2022-09-06T22:21:27.582Z,13.55
2022-09-06T22:23:57.452Z,11.60
2022-09-06T22:26:27.318Z,10.02
2022-09-06T22:28:58.248Z,9.25
2022-09-06T22:31:27.096Z,9.52
2022-09-06T22:33:55.547Z,10.18
2022-09-06T22:36:24.006Z,8.15
2022-09-06T22:38:56.393Z,9.93
2022-09-06T22:41:27.966Z,10.88
2022-09-06T22:43:56.551Z,15.15
2022-09-06T22:46:23.883Z,10.00
2022-09-06T22:48:51.300Z,11.95
2022-09-06T22:51:18.844Z,8.30
2022-09-06T22:53:46.027Z,7.40
2022-09-06T22:56:13.351Z,11.32
2022-09-06T22:58:41.058Z,7.93
2022-09-06T23:01:10.859Z,10.70
2022-09-06T23:03:39.071Z,8.20
2022-09-06T23:06:06.765Z,10.40
2022-09-06T23:08:36.701Z,11.93
2022-09-06T23:11:10.242Z,9.50
2022-09-06T23:13:37.868Z,8.63
2022-09-06T23:16:07.484Z,9.07
2022-09-06T23:18:35.211Z,8.65
2022-09-06T23:21:11.301Z,10.60
2022-09-06T23:23:39.619Z,8.75
2022-09-06T23:26:09.955Z,11.25
2022-09-06T23:28:37.370Z,9.15
2022-09-06T23:31:07.383Z,7.85
2022-09-06T23:33:38.855Z,7.65
2022-09-06T23:36:08.091Z,11.35
2022-09-06T23:38:37.701Z,7.72
2022-09-06T23:41:06.391Z,8.45
2022-09-06T23:43:33.651Z,8.52
2022-09-06T23:46:01.169Z,8.10
2022-09-06T23:48:28.971Z,10.30
2022-09-06T23:50:56.251Z,8.25
2022-09-06T23:53:23.969Z,10.82
2022-09-06T23:55:51.234Z,9.10
2022-09-06T23:58:18.424Z,12.20
